X  Chiuso Dati meteorologici dell'aviazione (METAR)     EHBK Maastricht Aachen Airport
Temperatura
16°C Temperatura
14°C Punto di rugiada
88% Umidità



Vento
10 KM/O
6 MPH
3 M/S
5 KTS



220°
SW
Condizioni attuali

Chiaro Thunderstorm, Pioggia Chiaro Thunderstorm, Pioggia
Pressione 1006.77 (hPa) - 29.73 (inHg)
Visibilità 6 (miglio) - 9.7 (km)
Aeroporto
Codice-Aeroporto EHBK

Posizione: Maastricht Aachen Airport
Distanza: 26 (km)

Metar:
EHBK 161855Z AUTO 22005KT 160V290 9999 -TSRA FEW015CB SCT029 16/14 Q1007 TEMPO 6000 SHRA TSRA SCT030CB

Ore: 16-06-2024 20:55 CEST